sensor_id;sensor_type;location;lat;lon;timestamp;P1;durP1;ratioP1;P2;durP2;ratioP2
12228;SDS011;6177;52.402;9.800;2023-02-15T00:01:49;21.63;;;19.33;;
12228;SDS011;6177;52.402;9.800;2023-02-15T00:04:40;21.50;;;19.30;;
12228;SDS011;6177;52.402;9.800;2023-02-15T00:07:37;22.90;;;20.10;;
12228;SDS011;6177;52.402;9.800;2023-02-15T00:10:27;22.20;;;19.90;;
12228;SDS011;6177;52.402;9.800;2023-02-15T00:13:19;21.83;;;19.53;;
12228;SDS011;6177;52.402;9.800;2023-02-15T00:16:11;24.43;;;21.07;;
12228;SDS011;6177;52.402;9.800;2023-02-15T00:19:03;21.23;;;19.13;;
12228;SDS011;6177;52.402;9.800;2023-02-15T00:21:54;20.87;;;18.67;;
12228;SDS011;6177;52.402;9.800;2023-02-15T00:24:45;25.97;;;21.73;;
12228;SDS011;6177;52.402;9.800;2023-02-15T00:27:36;23.50;;;20.60;;
12228;SDS011;6177;52.402;9.800;2023-02-15T00:30:26;24.03;;;21.33;;
12228;SDS011;6177;52.402;9.800;2023-02-15T00:33:17;22.87;;;20.50;;
12228;SDS011;6177;52.402;9.800;2023-02-15T00:36:08;22.67;;;18.97;;
12228;SDS011;6177;52.402;9.800;2023-02-15T00:39:00;22.07;;;19.70;;
12228;SDS011;6177;52.402;9.800;2023-02-15T00:41:51;25.03;;;22.37;;
12228;SDS011;6177;52.402;9.800;2023-02-15T00:44:42;23.17;;;20.30;;
12228;SDS011;6177;52.402;9.800;2023-02-15T00:47:33;21.53;;;18.77;;
12228;SDS011;6177;52.402;9.800;2023-02-15T00:50:24;21.17;;;18.97;;
12228;SDS011;6177;52.402;9.800;2023-02-15T00:53:15;21.03;;;18.83;;
12228;SDS011;6177;52.402;9.800;2023-02-15T00:56:06;23.70;;;19.17;;
12228;SDS011;6177;52.402;9.800;2023-02-15T00:58:57;19.50;;;17.57;;
12228;SDS011;6177;52.402;9.800;2023-02-15T01:01:47;19.60;;;17.70;;
12228;SDS011;6177;52.402;9.800;2023-02-15T01:04:38;19.70;;;17.13;;
12228;SDS011;6177;52.402;9.800;2023-02-15T01:07:29;18.97;;;17.03;;
12228;SDS011;6177;52.402;9.800;2023-02-15T01:10:20;18.67;;;16.70;;
12228;SDS011;6177;52.402;9.800;2023-02-15T01:13:11;17.63;;;15.90;;
12228;SDS011;6177;52.402;9.800;2023-02-15T01:16:02;19.27;;;17.23;;
12228;SDS011;6177;52.402;9.800;2023-02-15T01:18:54;20.27;;;17.70;;
12228;SDS011;6177;52.402;9.800;2023-02-15T01:21:45;19.47;;;16.87;;
12228;SDS011;6177;52.402;9.800;2023-02-15T01:24:36;16.80;;;15.10;;
12228;SDS011;6177;52.402;9.800;2023-02-15T01:27:27;18.80;;;16.93;;
12228;SDS011;6177;52.402;9.800;2023-02-15T01:30:21;20.50;;;18.37;;
12228;SDS011;6177;52.402;9.800;2023-02-15T01:33:12;19.83;;;17.50;;
12228;SDS011;6177;52.402;9.800;2023-02-15T01:36:07;20.23;;;18.13;;
12228;SDS011;6177;52.402;9.800;2023-02-15T01:38:58;20.17;;;18.00;;
12228;SDS011;6177;52.402;9.800;2023-02-15T01:41:49;22.20;;;19.40;;
12228;SDS011;6177;52.402;9.800;2023-02-15T01:44:53;23.80;;;20.30;;
12228;SDS011;6177;52.402;9.800;2023-02-15T01:50:48;20.87;;;18.67;;
12228;SDS011;6177;52.402;9.800;2023-02-15T01:53:43;25.87;;;19.77;;
12228;SDS011;6177;52.402;9.800;2023-02-15T01:56:41;21.87;;;19.67;;
12228;SDS011;6177;52.402;9.800;2023-02-15T01:59:33;20.80;;;18.60;;
12228;SDS011;6177;52.402;9.800;2023-02-15T02:02:25;21.30;;;18.17;;
12228;SDS011;6177;52.402;9.800;2023-02-15T02:05:17;23.17;;;20.43;;
12228;SDS011;6177;52.402;9.800;2023-02-15T02:08:08;21.40;;;18.87;;
12228;SDS011;6177;52.402;9.800;2023-02-15T02:10:59;21.57;;;19.03;;
12228;SDS011;6177;52.402;9.800;2023-02-15T02:13:50;21.33;;;19.03;;
12228;SDS011;6177;52.402;9.800;2023-02-15T02:16:45;22.20;;;19.13;;
12228;SDS011;6177;52.402;9.800;2023-02-15T02:36:02;22.40;;;19.13;;
12228;SDS011;6177;52.402;9.800;2023-02-15T02:42:12;22.43;;;18.07;;
12228;SDS011;6177;52.402;9.800;2023-02-15T02:45:43;25.37;;;20.10;;
12228;SDS011;6177;52.402;9.800;2023-02-15T02:48:27;20.37;;;17.60;;
12228;SDS011;6177;52.402;9.800;2023-02-15T02:51:20;20.20;;;17.60;;
12228;SDS011;6177;52.402;9.800;2023-02-15T02:54:12;18.43;;;16.53;;
12228;SDS011;6177;52.402;9.800;2023-02-15T02:57:04;22.93;;;19.30;;
12228;SDS011;6177;52.402;9.800;2023-02-15T02:59:59;21.73;;;18.27;;
12228;SDS011;6177;52.402;9.800;2023-02-15T03:02:58;19.87;;;17.57;;
12228;SDS011;6177;52.402;9.800;2023-02-15T03:05:56;20.00;;;17.50;;
12228;SDS011;6177;52.402;9.800;2023-02-15T03:09:11;21.67;;;18.10;;
12228;SDS011;6177;52.402;9.800;2023-02-15T03:12:05;20.37;;;18.03;;
12228;SDS011;6177;52.402;9.800;2023-02-15T03:17:57;20.17;;;17.53;;
12228;SDS011;6177;52.402;9.800;2023-02-15T03:20:49;18.97;;;17.07;;
12228;SDS011;6177;52.402;9.800;2023-02-15T03:23:39;18.47;;;16.57;;
12228;SDS011;6177;52.402;9.800;2023-02-15T03:26:30;18.70;;;16.47;;
12228;SDS011;6177;52.402;9.800;2023-02-15T03:29:26;17.87;;;16.07;;
12228;SDS011;6177;52.402;9.800;2023-02-15T03:32:17;17.80;;;15.90;;
12228;SDS011;6177;52.402;9.800;2023-02-15T03:35:09;17.90;;;15.90;;
12228;SDS011;6177;52.402;9.800;2023-02-15T03:38:00;17.60;;;15.70;;
12228;SDS011;6177;52.402;9.800;2023-02-15T03:40:52;17.00;;;15.27;;
12228;SDS011;6177;52.402;9.800;2023-02-15T03:44:23;17.97;;;16.17;;
12228;SDS011;6177;52.402;9.800;2023-02-15T03:47:23;16.90;;;15.20;;
12228;SDS011;6177;52.402;9.800;2023-02-15T03:50:18;17.67;;;15.77;;
12228;SDS011;6177;52.402;9.800;2023-02-15T03:53:30;18.37;;;15.67;;
12228;SDS011;6177;52.402;9.800;2023-02-15T03:56:21;15.87;;;14.37;;
12228;SDS011;6177;52.402;9.800;2023-02-15T03:59:12;16.73;;;15.03;;
12228;SDS011;6177;52.402;9.800;2023-02-15T04:02:21;17.13;;;15.27;;
12228;SDS011;6177;52.402;9.800;2023-02-15T04:05:15;16.90;;;15.10;;
12228;SDS011;6177;52.402;9.800;2023-02-15T04:08:06;16.80;;;15.03;;
12228;SDS011;6177;52.402;9.800;2023-02-15T04:10:57;17.37;;;15.27;;
12228;SDS011;6177;52.402;9.800;2023-02-15T04:13:49;17.07;;;15.37;;
12228;SDS011;6177;52.402;9.800;2023-02-15T04:16:46;17.10;;;15.03;;
12228;SDS011;6177;52.402;9.800;2023-02-15T04:19:37;18.20;;;15.90;;
12228;SDS011;6177;52.402;9.800;2023-02-15T04:22:46;17.23;;;14.73;;
12228;SDS011;6177;52.402;9.800;2023-02-15T04:25:55;17.37;;;15.23;;
12228;SDS011;6177;52.402;9.800;2023-02-15T04:28:46;18.07;;;16.17;;
12228;SDS011;6177;52.402;9.800;2023-02-15T04:31:37;18.07;;;16.17;;
12228;SDS011;6177;52.402;9.800;2023-02-15T04:34:28;16.20;;;14.60;;
12228;SDS011;6177;52.402;9.800;2023-02-15T04:37:19;17.13;;;15.43;;
12228;SDS011;6177;52.402;9.800;2023-02-15T04:40:11;16.57;;;14.83;;
12228;SDS011;6177;52.402;9.800;2023-02-15T04:43:03;16.63;;;15.03;;
12228;SDS011;6177;52.402;9.800;2023-02-15T04:45:54;16.40;;;14.70;;
12228;SDS011;6177;52.402;9.800;2023-02-15T04:48:45;17.50;;;15.03;;
12228;SDS011;6177;52.402;9.800;2023-02-15T04:51:35;16.47;;;14.83;;
12228;SDS011;6177;52.402;9.800;2023-02-15T04:54:27;18.23;;;16.20;;
12228;SDS011;6177;52.402;9.800;2023-02-15T04:57:17;17.43;;;15.63;;
12228;SDS011;6177;52.402;9.800;2023-02-15T05:00:08;17.93;;;16.13;;
12228;SDS011;6177;52.402;9.800;2023-02-15T05:02:59;17.20;;;15.40;;
12228;SDS011;6177;52.402;9.800;2023-02-15T05:05:50;17.13;;;15.43;;
12228;SDS011;6177;52.402;9.800;2023-02-15T05:08:40;17.50;;;15.70;;
12228;SDS011;6177;52.402;9.800;2023-02-15T05:11:31;18.47;;;15.10;;
12228;SDS011;6177;52.402;9.800;2023-02-15T05:14:22;18.67;;;16.70;;
12228;SDS011;6177;52.402;9.800;2023-02-15T05:17:13;17.20;;;15.50;;
12228;SDS011;6177;52.402;9.800;2023-02-15T05:20:04;16.80;;;14.90;;
12228;SDS011;6177;52.402;9.800;2023-02-15T05:22:55;18.07;;;15.37;;
12228;SDS011;6177;52.402;9.800;2023-02-15T05:25:49;18.47;;;16.40;;
12228;SDS011;6177;52.402;9.800;2023-02-15T05:28:59;19.00;;;17.00;;
12228;SDS011;6177;52.402;9.800;2023-02-15T05:31:50;18.83;;;16.87;;
12228;SDS011;6177;52.402;9.800;2023-02-15T05:34:41;20.77;;;18.37;;
12228;SDS011;6177;52.402;9.800;2023-02-15T05:37:32;19.10;;;17.10;;
12228;SDS011;6177;52.402;9.800;2023-02-15T05:40:23;21.27;;;18.47;;
12228;SDS011;6177;52.402;9.800;2023-02-15T05:43:13;23.43;;;18.23;;
12228;SDS011;6177;52.402;9.800;2023-02-15T05:46:04;19.73;;;17.63;;
12228;SDS011;6177;52.402;9.800;2023-02-15T05:48:55;19.80;;;17.77;;
12228;SDS011;6177;52.402;9.800;2023-02-15T05:51:46;19.30;;;17.30;;
12228;SDS011;6177;52.402;9.800;2023-02-15T05:54:37;20.10;;;18.00;;
12228;SDS011;6177;52.402;9.800;2023-02-15T05:57:28;20.50;;;18.30;;
12228;SDS011;6177;52.402;9.800;2023-02-15T06:00:19;21.30;;;18.73;;
12228;SDS011;6177;52.402;9.800;2023-02-15T06:03:10;21.73;;;18.97;;
12228;SDS011;6177;52.402;9.800;2023-02-15T06:06:01;22.83;;;18.80;;
12228;SDS011;6177;52.402;9.800;2023-02-15T06:08:54;20.37;;;18.23;;
12228;SDS011;6177;52.402;9.800;2023-02-15T06:11:45;21.80;;;18.57;;
12228;SDS011;6177;52.402;9.800;2023-02-15T06:14:36;20.17;;;18.07;;
12228;SDS011;6177;52.402;9.800;2023-02-15T06:17:27;20.90;;;18.70;;
12228;SDS011;6177;52.402;9.800;2023-02-15T06:20:18;22.87;;;19.30;;
12228;SDS011;6177;52.402;9.800;2023-02-15T06:23:09;21.40;;;18.47;;
12228;SDS011;6177;52.402;9.800;2023-02-15T06:26:00;21.00;;;18.77;;
12228;SDS011;6177;52.402;9.800;2023-02-15T06:28:51;21.90;;;19.57;;
12228;SDS011;6177;52.402;9.800;2023-02-15T06:31:42;22.67;;;18.40;;
12228;SDS011;6177;52.402;9.800;2023-02-15T06:34:33;21.47;;;17.93;;
12228;SDS011;6177;52.402;9.800;2023-02-15T06:37:24;19.80;;;17.80;;
12228;SDS011;6177;52.402;9.800;2023-02-15T06:40:15;20.53;;;18.47;;
12228;SDS011;6177;52.402;9.800;2023-02-15T06:43:06;20.43;;;18.03;;
12228;SDS011;6177;52.402;9.800;2023-02-15T06:45:57;20.07;;;17.97;;
12228;SDS011;6177;52.402;9.800;2023-02-15T06:48:48;20.10;;;17.63;;
12228;SDS011;6177;52.402;9.800;2023-02-15T06:51:39;19.17;;;17.27;;
12228;SDS011;6177;52.402;9.800;2023-02-15T06:54:30;19.13;;;17.23;;
12228;SDS011;6177;52.402;9.800;2023-02-15T06:57:21;19.37;;;17.37;;
12228;SDS011;6177;52.402;9.800;2023-02-15T07:00:12;18.87;;;16.97;;
12228;SDS011;6177;52.402;9.800;2023-02-15T07:03:03;19.97;;;17.80;;
12228;SDS011;6177;52.402;9.800;2023-02-15T07:05:58;20.40;;;18.30;;
12228;SDS011;6177;52.402;9.800;2023-02-15T07:08:50;20.07;;;17.63;;
12228;SDS011;6177;52.402;9.800;2023-02-15T07:11:41;20.37;;;18.37;;
12228;SDS011;6177;52.402;9.800;2023-02-15T07:14:50;19.07;;;17.10;;
12228;SDS011;6177;52.402;9.800;2023-02-15T07:17:41;19.73;;;17.63;;
12228;SDS011;6177;52.402;9.800;2023-02-15T07:20:32;18.57;;;16.67;;
12228;SDS011;6177;52.402;9.800;2023-02-15T07:23:26;18.50;;;16.53;;
12228;SDS011;6177;52.402;9.800;2023-02-15T07:26:17;17.93;;;16.23;;
12228;SDS011;6177;52.402;9.800;2023-02-15T07:29:08;19.73;;;17.63;;
12228;SDS011;6177;52.402;9.800;2023-02-15T07:31:59;17.20;;;15.40;;
12228;SDS011;6177;52.402;9.800;2023-02-15T07:34:50;16.97;;;15.37;;
12228;SDS011;6177;52.402;9.800;2023-02-15T07:37:41;16.17;;;14.50;;
12228;SDS011;6177;52.402;9.800;2023-02-15T07:40:32;17.70;;;16.00;;
12228;SDS011;6177;52.402;9.800;2023-02-15T07:43:23;17.90;;;16.07;;
12228;SDS011;6177;52.402;9.800;2023-02-15T07:46:15;17.13;;;15.53;;
12228;SDS011;6177;52.402;9.800;2023-02-15T07:49:07;18.10;;;16.40;;
12228;SDS011;6177;52.402;9.800;2023-02-15T07:51:59;17.53;;;15.87;;
12228;SDS011;6177;52.402;9.800;2023-02-15T07:54:51;18.23;;;16.23;;
12228;SDS011;6177;52.402;9.800;2023-02-15T07:57:43;18.67;;;16.87;;
12228;SDS011;6177;52.402;9.800;2023-02-15T08:00:37;16.73;;;15.17;;
12228;SDS011;6177;52.402;9.800;2023-02-15T08:03:47;17.23;;;15.63;;
12228;SDS011;6177;52.402;9.800;2023-02-15T08:06:38;17.17;;;15.57;;
12228;SDS011;6177;52.402;9.800;2023-02-15T08:09:29;17.93;;;16.13;;
12228;SDS011;6177;52.402;9.800;2023-02-15T08:12:20;16.83;;;15.23;;
12228;SDS011;6177;52.402;9.800;2023-02-15T08:15:11;17.20;;;15.57;;
12228;SDS011;6177;52.402;9.800;2023-02-15T08:18:02;16.33;;;14.80;;
12228;SDS011;6177;52.402;9.800;2023-02-15T08:20:53;16.73;;;15.13;;
12228;SDS011;6177;52.402;9.800;2023-02-15T08:23:44;16.60;;;15.03;;
12228;SDS011;6177;52.402;9.800;2023-02-15T08:26:35;16.30;;;14.87;;
12228;SDS011;6177;52.402;9.800;2023-02-15T08:29:26;16.43;;;14.90;;
12228;SDS011;6177;52.402;9.800;2023-02-15T08:32:18;16.40;;;14.77;;
12228;SDS011;6177;52.402;9.800;2023-02-15T08:35:09;14.90;;;13.60;;
12228;SDS011;6177;52.402;9.800;2023-02-15T08:38:00;15.80;;;14.30;;
12228;SDS011;6177;52.402;9.800;2023-02-15T08:40:51;17.07;;;15.57;;
12228;SDS011;6177;52.402;9.800;2023-02-15T08:43:42;16.97;;;15.43;;
12228;SDS011;6177;52.402;9.800;2023-02-15T08:46:35;16.30;;;15.00;;
12228;SDS011;6177;52.402;9.800;2023-02-15T08:49:27;15.80;;;14.37;;
12228;SDS011;6177;52.402;9.800;2023-02-15T08:52:17;16.30;;;14.70;;
12228;SDS011;6177;52.402;9.800;2023-02-15T08:55:08;15.40;;;14.10;;
12228;SDS011;6177;52.402;9.800;2023-02-15T08:57:59;15.77;;;14.30;;
12228;SDS011;6177;52.402;9.800;2023-02-15T09:00:50;15.00;;;13.67;;
12228;SDS011;6177;52.402;9.800;2023-02-15T09:03:42;16.13;;;14.73;;
12228;SDS011;6177;52.402;9.800;2023-02-15T09:06:32;16.00;;;14.50;;
12228;SDS011;6177;52.402;9.800;2023-02-15T09:09:23;15.63;;;14.20;;
12228;SDS011;6177;52.402;9.800;2023-02-15T09:12:14;16.47;;;14.97;;
12228;SDS011;6177;52.402;9.800;2023-02-15T09:15:05;15.57;;;14.13;;
12228;SDS011;6177;52.402;9.800;2023-02-15T09:17:57;14.73;;;13.43;;
12228;SDS011;6177;52.402;9.800;2023-02-15T09:20:51;15.80;;;14.30;;
12228;SDS011;6177;52.402;9.800;2023-02-15T09:23:43;14.77;;;13.47;;
12228;SDS011;6177;52.402;9.800;2023-02-15T09:26:35;14.33;;;13.03;;
12228;SDS011;6177;52.402;9.800;2023-02-15T09:29:27;15.63;;;14.17;;
12228;SDS011;6177;52.402;9.800;2023-02-15T09:32:18;16.23;;;14.83;;
12228;SDS011;6177;52.402;9.800;2023-02-15T09:35:09;15.33;;;14.03;;
12228;SDS011;6177;52.402;9.800;2023-02-15T09:38:00;14.33;;;13.13;;
12228;SDS011;6177;52.402;9.800;2023-02-15T09:41:04;15.67;;;14.23;;
12228;SDS011;6177;52.402;9.800;2023-02-15T09:54:09;13.10;;;12.00;;
12228;SDS011;6177;52.402;9.800;2023-02-15T09:57:10;13.47;;;12.37;;
12228;SDS011;6177;52.402;9.800;2023-02-15T10:06:34;12.63;;;11.53;;
12228;SDS011;6177;52.402;9.800;2023-02-15T10:12:54;12.90;;;11.70;;
12228;SDS011;6177;52.402;9.800;2023-02-15T10:15:53;12.23;;;11.23;;
12228;SDS011;6177;52.402;9.800;2023-02-15T10:28:23;13.43;;;12.07;;
12228;SDS011;6177;52.402;9.800;2023-02-15T10:44:28;12.83;;;11.73;;
12228;SDS011;6177;52.402;9.800;2023-02-15T10:59:56;13.40;;;12.20;;
12228;SDS011;6177;52.402;9.800;2023-02-15T11:03:50;13.23;;;12.13;;
12228;SDS011;6177;52.402;9.800;2023-02-15T11:06:21;13.40;;;12.30;;
12228;SDS011;6177;52.402;9.800;2023-02-15T11:09:13;13.43;;;12.30;;
12228;SDS011;6177;52.402;9.800;2023-02-15T11:12:10;12.33;;;11.33;;
12228;SDS011;6177;52.402;9.800;2023-02-15T11:21:21;13.10;;;11.80;;
12228;SDS011;6177;52.402;9.800;2023-02-15T11:24:19;13.03;;;11.93;;
12228;SDS011;6177;52.402;9.800;2023-02-15T11:33:12;13.63;;;12.27;;
12228;SDS011;6177;52.402;9.800;2023-02-15T11:39:05;13.30;;;12.20;;
12228;SDS011;6177;52.402;9.800;2023-02-15T11:42:02;12.77;;;11.67;;
12228;SDS011;6177;52.402;9.800;2023-02-15T11:45:02;13.07;;;11.97;;
12228;SDS011;6177;52.402;9.800;2023-02-15T11:47:57;12.67;;;11.67;;
12228;SDS011;6177;52.402;9.800;2023-02-15T11:50:49;12.87;;;11.67;;
12228;SDS011;6177;52.402;9.800;2023-02-15T11:53:40;12.67;;;11.67;;
12228;SDS011;6177;52.402;9.800;2023-02-15T11:56:31;12.80;;;11.70;;
12228;SDS011;6177;52.402;9.800;2023-02-15T11:59:29;12.10;;;11.00;;
12228;SDS011;6177;52.402;9.800;2023-02-15T12:02:23;12.47;;;11.47;;
12228;SDS011;6177;52.402;9.800;2023-02-15T12:05:17;13.27;;;12.17;;
12228;SDS011;6177;52.402;9.800;2023-02-15T12:08:15;12.43;;;11.17;;
12228;SDS011;6177;52.402;9.800;2023-02-15T12:11:08;13.07;;;11.90;;
12228;SDS011;6177;52.402;9.800;2023-02-15T12:16:55;12.70;;;11.70;;
12228;SDS011;6177;52.402;9.800;2023-02-15T12:19:46;12.83;;;11.70;;
12228;SDS011;6177;52.402;9.800;2023-02-15T12:22:45;12.03;;;11.03;;
12228;SDS011;6177;52.402;9.800;2023-02-15T12:25:43;12.70;;;11.70;;
12228;SDS011;6177;52.402;9.800;2023-02-15T12:28:42;11.23;;;10.40;;
12228;SDS011;6177;52.402;9.800;2023-02-15T12:31:36;12.23;;;11.23;;
12228;SDS011;6177;52.402;9.800;2023-02-15T12:34:30;12.27;;;11.17;;
12228;SDS011;6177;52.402;9.800;2023-02-15T12:37:23;12.07;;;10.90;;
12228;SDS011;6177;52.402;9.800;2023-02-15T12:40:20;11.43;;;10.43;;
12228;SDS011;6177;52.402;9.800;2023-02-15T12:46:36;11.30;;;10.40;;
12228;SDS011;6177;52.402;9.800;2023-02-15T12:49:30;12.30;;;11.30;;
12228;SDS011;6177;52.402;9.800;2023-02-15T12:52:24;12.37;;;11.33;;
12228;SDS011;6177;52.402;9.800;2023-02-15T12:55:25;12.07;;;11.07;;
12228;SDS011;6177;52.402;9.800;2023-02-15T12:58:20;11.70;;;10.70;;
12228;SDS011;6177;52.402;9.800;2023-02-15T13:01:16;11.37;;;10.43;;
12228;SDS011;6177;52.402;9.800;2023-02-15T13:04:19;11.80;;;10.80;;
12228;SDS011;6177;52.402;9.800;2023-02-15T13:07:18;11.77;;;10.77;;
12228;SDS011;6177;52.402;9.800;2023-02-15T13:10:18;11.07;;;10.17;;
12228;SDS011;6177;52.402;9.800;2023-02-15T13:13:18;13.00;;;11.80;;
12228;SDS011;6177;52.402;9.800;2023-02-15T13:16:13;12.07;;;11.07;;
12228;SDS011;6177;52.402;9.800;2023-02-15T13:19:12;11.70;;;10.80;;
12228;SDS011;6177;52.402;9.800;2023-02-15T13:22:06;12.27;;;11.23;;
12228;SDS011;6177;52.402;9.800;2023-02-15T13:24:59;11.27;;;10.23;;
12228;SDS011;6177;52.402;9.800;2023-02-15T13:27:55;11.90;;;10.80;;
12228;SDS011;6177;52.402;9.800;2023-02-15T13:30:50;11.77;;;10.77;;
12228;SDS011;6177;52.402;9.800;2023-02-15T13:33:43;11.87;;;11.07;;
12228;SDS011;6177;52.402;9.800;2023-02-15T13:36:40;12.37;;;11.23;;
12228;SDS011;6177;52.402;9.800;2023-02-15T13:43:01;12.87;;;11.67;;
12228;SDS011;6177;52.402;9.800;2023-02-15T13:55:29;11.45;;;10.50;;
12228;SDS011;6177;52.402;9.800;2023-02-15T14:01:31;11.95;;;10.90;;
12228;SDS011;6177;52.402;9.800;2023-02-15T14:10:49;12.07;;;11.07;;
12228;SDS011;6177;52.402;9.800;2023-02-15T14:20:21;12.82;;;11.75;;
12228;SDS011;6177;52.402;9.800;2023-02-15T14:26:33;13.00;;;12.00;;
12228;SDS011;6177;52.402;9.800;2023-02-15T14:32:42;12.98;;;11.88;;
12228;SDS011;6177;52.402;9.800;2023-02-15T14:35:35;13.02;;;11.95;;
12228;SDS011;6177;52.402;9.800;2023-02-15T14:38:38;12.45;;;11.38;;
12228;SDS011;6177;52.402;9.800;2023-02-15T14:41:40;12.10;;;11.20;;
12228;SDS011;6177;52.402;9.800;2023-02-15T14:44:36;12.23;;;11.25;;
12228;SDS011;6177;52.402;9.800;2023-02-15T14:53:39;12.00;;;11.10;;
12228;SDS011;6177;52.402;9.800;2023-02-15T14:56:32;12.80;;;11.70;;
12228;SDS011;6177;52.402;9.800;2023-02-15T14:59:23;13.80;;;12.70;;
12228;SDS011;6177;52.402;9.800;2023-02-15T15:02:15;13.53;;;12.53;;
12228;SDS011;6177;52.402;9.800;2023-02-15T15:05:10;13.50;;;12.35;;
12228;SDS011;6177;52.402;9.800;2023-02-15T15:08:19;13.00;;;11.80;;
12228;SDS011;6177;52.402;9.800;2023-02-15T15:11:36;12.90;;;11.77;;
12228;SDS011;6177;52.402;9.800;2023-02-15T15:23:41;13.13;;;12.03;;
12228;SDS011;6177;52.402;9.800;2023-02-15T15:26:33;12.63;;;11.60;;
12228;SDS011;6177;52.402;9.800;2023-02-15T15:29:39;11.83;;;10.73;;
12228;SDS011;6177;52.402;9.800;2023-02-15T15:32:31;12.10;;;11.20;;
12228;SDS011;6177;52.402;9.800;2023-02-15T15:45:02;12.87;;;11.87;;
12228;SDS011;6177;52.402;9.800;2023-02-15T15:54:34;13.07;;;11.97;;
12228;SDS011;6177;52.402;9.800;2023-02-15T15:57:33;13.13;;;12.03;;
12228;SDS011;6177;52.402;9.800;2023-02-15T16:03:37;14.00;;;12.77;;
12228;SDS011;6177;52.402;9.800;2023-02-15T16:06:35;13.27;;;12.13;;
12228;SDS011;6177;52.402;9.800;2023-02-15T16:09:28;13.40;;;12.30;;
12228;SDS011;6177;52.402;9.800;2023-02-15T16:12:19;13.87;;;12.77;;
12228;SDS011;6177;52.402;9.800;2023-02-15T16:15:15;12.60;;;11.67;;
12228;SDS011;6177;52.402;9.800;2023-02-15T16:18:10;13.50;;;12.40;;
12228;SDS011;6177;52.402;9.800;2023-02-15T16:21:04;14.40;;;13.07;;
12228;SDS011;6177;52.402;9.800;2023-02-15T16:27:19;14.33;;;13.03;;
12228;SDS011;6177;52.402;9.800;2023-02-15T16:30:21;14.73;;;13.33;;
12228;SDS011;6177;52.402;9.800;2023-02-15T16:33:20;14.27;;;12.97;;
12228;SDS011;6177;52.402;9.800;2023-02-15T16:36:13;14.03;;;12.83;;
12228;SDS011;6177;52.402;9.800;2023-02-15T16:39:18;15.27;;;13.83;;
12228;SDS011;6177;52.402;9.800;2023-02-15T16:42:13;15.53;;;14.13;;
12228;SDS011;6177;52.402;9.800;2023-02-15T16:45:06;15.33;;;13.87;;
12228;SDS011;6177;52.402;9.800;2023-02-15T16:48:00;14.67;;;13.27;;
12228;SDS011;6177;52.402;9.800;2023-02-15T16:50:53;14.77;;;13.47;;
12228;SDS011;6177;52.402;9.800;2023-02-15T16:53:46;15.97;;;14.47;;
12228;SDS011;6177;52.402;9.800;2023-02-15T16:56:38;14.80;;;13.50;;
12228;SDS011;6177;52.402;9.800;2023-02-15T17:02:30;16.50;;;14.90;;
12228;SDS011;6177;52.402;9.800;2023-02-15T17:05:21;17.37;;;15.77;;
12228;SDS011;6177;52.402;9.800;2023-02-15T17:08:16;16.47;;;14.97;;
12228;SDS011;6177;52.402;9.800;2023-02-15T17:11:12;14.97;;;13.60;;
12228;SDS011;6177;52.402;9.800;2023-02-15T17:17:15;15.47;;;14.17;;
12228;SDS011;6177;52.402;9.800;2023-02-15T17:20:11;14.87;;;13.47;;
12228;SDS011;6177;52.402;9.800;2023-02-15T17:23:03;14.93;;;13.63;;
12228;SDS011;6177;52.402;9.800;2023-02-15T17:25:54;15.47;;;13.97;;
12228;SDS011;6177;52.402;9.800;2023-02-15T17:28:46;15.87;;;14.23;;
12228;SDS011;6177;52.402;9.800;2023-02-15T17:31:46;15.13;;;13.93;;
12228;SDS011;6177;52.402;9.800;2023-02-15T17:34:49;15.23;;;13.93;;
12228;SDS011;6177;52.402;9.800;2023-02-15T17:37:49;16.10;;;14.40;;
12228;SDS011;6177;52.402;9.800;2023-02-15T17:40:39;15.60;;;14.00;;
12228;SDS011;6177;52.402;9.800;2023-02-15T17:43:30;15.50;;;14.10;;
12228;SDS011;6177;52.402;9.800;2023-02-15T17:46:21;16.10;;;13.23;;
12228;SDS011;6177;52.402;9.800;2023-02-15T17:49:22;15.03;;;13.73;;
12228;SDS011;6177;52.402;9.800;2023-02-15T17:52:15;16.10;;;14.43;;
12228;SDS011;6177;52.402;9.800;2023-02-15T17:55:12;15.53;;;14.03;;
12228;SDS011;6177;52.402;9.800;2023-02-15T17:58:22;15.50;;;14.03;;
12228;SDS011;6177;52.402;9.800;2023-02-15T18:01:16;14.90;;;13.50;;
12228;SDS011;6177;52.402;9.800;2023-02-15T18:04:25;14.73;;;13.43;;
12228;SDS011;6177;52.402;9.800;2023-02-15T18:07:34;14.50;;;13.23;;
12228;SDS011;6177;52.402;9.800;2023-02-15T18:10:43;14.90;;;13.47;;
12228;SDS011;6177;52.402;9.800;2023-02-15T18:13:52;13.53;;;12.33;;
12228;SDS011;6177;52.402;9.800;2023-02-15T18:16:43;12.47;;;11.37;;
12228;SDS011;6177;52.402;9.800;2023-02-15T18:19:34;13.40;;;12.20;;
12228;SDS011;6177;52.402;9.800;2023-02-15T18:22:26;13.00;;;11.90;;
12228;SDS011;6177;52.402;9.800;2023-02-15T18:25:19;12.93;;;11.80;;
12228;SDS011;6177;52.402;9.800;2023-02-15T18:28:11;13.10;;;11.93;;
12228;SDS011;6177;52.402;9.800;2023-02-15T18:31:02;13.07;;;11.90;;
12228;SDS011;6177;52.402;9.800;2023-02-15T18:33:53;11.87;;;10.87;;
12228;SDS011;6177;52.402;9.800;2023-02-15T18:36:45;12.87;;;11.77;;
12228;SDS011;6177;52.402;9.800;2023-02-15T18:39:49;11.87;;;10.87;;
12228;SDS011;6177;52.402;9.800;2023-02-15T18:42:40;12.17;;;11.17;;
12228;SDS011;6177;52.402;9.800;2023-02-15T18:45:36;12.00;;;11.00;;
12228;SDS011;6177;52.402;9.800;2023-02-15T18:48:29;12.20;;;11.20;;
12228;SDS011;6177;52.402;9.800;2023-02-15T18:51:21;12.37;;;11.27;;
12228;SDS011;6177;52.402;9.800;2023-02-15T18:54:21;13.00;;;11.80;;
12228;SDS011;6177;52.402;9.800;2023-02-15T18:57:13;12.87;;;11.63;;
12228;SDS011;6177;52.402;9.800;2023-02-15T19:00:06;11.93;;;10.93;;
12228;SDS011;6177;52.402;9.800;2023-02-15T19:02:59;13.83;;;12.73;;
12228;SDS011;6177;52.402;9.800;2023-02-15T19:05:53;13.03;;;11.83;;
12228;SDS011;6177;52.402;9.800;2023-02-15T19:08:44;12.43;;;11.33;;
12228;SDS011;6177;52.402;9.800;2023-02-15T19:11:36;12.17;;;11.07;;
12228;SDS011;6177;52.402;9.800;2023-02-15T19:14:28;13.03;;;11.83;;
12228;SDS011;6177;52.402;9.800;2023-02-15T19:17:20;12.93;;;11.77;;
12228;SDS011;6177;52.402;9.800;2023-02-15T19:20:53;13.33;;;12.13;;
12228;SDS011;6177;52.402;9.800;2023-02-15T19:23:32;13.13;;;11.87;;
12228;SDS011;6177;52.402;9.800;2023-02-15T19:26:22;12.60;;;11.40;;
12228;SDS011;6177;52.402;9.800;2023-02-15T19:29:15;12.47;;;11.27;;
12228;SDS011;6177;52.402;9.800;2023-02-15T19:32:14;13.10;;;11.90;;
12228;SDS011;6177;52.402;9.800;2023-02-15T19:35:05;13.43;;;12.23;;
12228;SDS011;6177;52.402;9.800;2023-02-15T19:37:59;13.83;;;12.37;;
12228;SDS011;6177;52.402;9.800;2023-02-15T19:40:51;13.40;;;12.20;;
12228;SDS011;6177;52.402;9.800;2023-02-15T19:43:43;13.73;;;12.53;;
12228;SDS011;6177;52.402;9.800;2023-02-15T19:46:35;13.33;;;12.17;;
12228;SDS011;6177;52.402;9.800;2023-02-15T19:49:27;13.23;;;11.93;;
12228;SDS011;6177;52.402;9.800;2023-02-15T19:52:19;13.87;;;12.47;;
12228;SDS011;6177;52.402;9.800;2023-02-15T19:55:30;13.93;;;12.63;;
12228;SDS011;6177;52.402;9.800;2023-02-15T19:58:22;12.37;;;11.37;;
12228;SDS011;6177;52.402;9.800;2023-02-15T20:01:13;14.10;;;12.90;;
12228;SDS011;6177;52.402;9.800;2023-02-15T20:04:04;14.07;;;12.57;;
12228;SDS011;6177;52.402;9.800;2023-02-15T20:06:56;12.83;;;11.63;;
12228;SDS011;6177;52.402;9.800;2023-02-15T20:09:49;13.20;;;11.90;;
12228;SDS011;6177;52.402;9.800;2023-02-15T20:12:40;13.97;;;12.70;;
12228;SDS011;6177;52.402;9.800;2023-02-15T20:15:32;13.10;;;12.00;;